Time;durP1;ratioP1;P1;durP2;ratioP2;P2;SDS_P1;SDS_P2;PMS_P1;PMS_P2;Temp;Humidity;BMP_temperature;BMP_pressure;BME280_temperature;BME280_humidity;BME280_pressure;Samples;Min_cycle;Max_cycle;Signal;HPM_P1;HPM_P2
2021/08/25 00:00:29;;;;;;;3.88;2.38;;;;;;;;;;6193361;28;20044;-77
2021/08/25 00:03:30;;;;;;;3.33;2.20;;;;;;;;;;6194372;28;20045;-78
2021/08/25 00:06:32;;;;;;;5.53;2.30;;;;;;;;;;6190875;28;20047;-77
2021/08/25 00:09:35;;;;;;;4.05;2.10;;;;;;;;;;6194533;28;20053;-78
2021/08/25 00:12:38;;;;;;;5.30;2.60;;;;;;;;;;6196154;28;20062;-78
2021/08/25 00:15:42;;;;;;;10.80;3.17;;;;;;;;;;6195940;28;20050;-78
2021/08/25 00:18:44;;;;;;;3.42;2.28;;;;;;;;;;6195945;28;20050;-78
2021/08/25 00:21:45;;;;;;;4.07;2.15;;;;;;;;;;6172471;28;20039;-78
2021/08/25 00:24:47;;;;;;;3.00;1.90;;;;;;;;;;6173094;28;20041;-78
2021/08/25 00:27:49;;;;;;;4.90;1.95;;;;;;;;;;6170352;28;20042;-78
2021/08/25 00:30:51;;;;;;;4.78;2.15;;;;;;;;;;6191633;28;20499;-79
2021/08/25 00:33:52;;;;;;;3.40;2.00;;;;;;;;;;6197480;28;20047;-78
2021/08/25 00:36:54;;;;;;;2.95;2.10;;;;;;;;;;6174068;28;20050;-78
2021/08/25 00:39:56;;;;;;;4.95;2.08;;;;;;;;;;6172247;28;20043;-78
2021/08/25 00:43:09;;;;;;;4.85;2.60;;;;;;;;;;6157546;28;20043;-78
2021/08/25 00:46:11;;;;;;;3.50;2.30;;;;;;;;;;6197995;28;20048;-78
2021/08/25 00:49:16;;;;;;;5.25;2.28;;;;;;;;;;6192527;28;20046;-78
2021/08/25 00:52:17;;;;;;;2.90;2.05;;;;;;;;;;6173129;28;20046;-78
2021/08/25 00:55:19;;;;;;;4.50;2.80;;;;;;;;;;6170875;28;20169;-77
2021/08/25 00:58:21;;;;;;;3.70;3.05;;;;;;;;;;6185928;28;20491;-78
2021/08/25 01:01:44;;;;;;;5.07;2.60;;;;;;;;;;6193132;28;20049;-79
2021/08/25 01:04:53;;;;;;;7.72;3.63;;;;;;;;;;6194119;28;20050;-79
2021/08/25 01:07:57;;;;;;;3.83;2.55;;;;;;;;;;6195591;28;20496;-79
2021/08/25 01:11:09;;;;;;;4.18;2.20;;;;;;;;;;6194476;28;20053;-79
2021/08/25 01:14:11;;;;;;;5.80;2.40;;;;;;;;;;6187349;28;20049;-79
2021/08/25 01:17:13;;;;;;;4.13;2.10;;;;;;;;;;6170861;28;20042;-79
2021/08/25 01:20:16;;;;;;;4.50;2.65;;;;;;;;;;6169366;28;20054;-79
2021/08/25 01:23:20;;;;;;;4.07;2.10;;;;;;;;;;6169988;28;20416;-79
2021/08/25 01:26:21;;;;;;;3.33;1.92;;;;;;;;;;6172182;28;20430;-79
2021/08/25 01:29:29;;;;;;;4.95;2.30;;;;;;;;;;6186556;28;19921;-78
2021/08/25 01:32:34;;;;;;;4.85;2.63;;;;;;;;;;6195288;28;20042;-79
2021/08/25 01:35:40;;;;;;;4.65;2.40;;;;;;;;;;6169324;28;20046;-79
2021/08/25 01:38:49;;;;;;;7.32;2.35;;;;;;;;;;6172753;28;20081;-78
2021/08/25 01:41:51;;;;;;;4.40;2.28;;;;;;;;;;6183640;28;20043;-79
2021/08/25 01:44:53;;;;;;;4.85;2.33;;;;;;;;;;6170668;28;20058;-79
2021/08/25 01:47:54;;;;;;;3.63;2.17;;;;;;;;;;6187670;28;20042;-79
2021/08/25 01:50:56;;;;;;;4.03;2.38;;;;;;;;;;6176872;28;20043;-79
2021/08/25 01:53:58;;;;;;;4.13;2.30;;;;;;;;;;6179339;28;20105;-79
2021/08/25 01:57:00;;;;;;;3.25;2.20;;;;;;;;;;6208868;28;20080;-79
2021/08/25 02:00:03;;;;;;;4.22;2.00;;;;;;;;;;6197267;28;20053;-77
2021/08/25 02:03:06;;;;;;;2.92;1.90;;;;;;;;;;6192237;28;20039;-78
2021/08/25 02:06:08;;;;;;;6.13;2.17;;;;;;;;;;6174574;28;20408;-78
2021/08/25 02:09:10;;;;;;;3.38;2.25;;;;;;;;;;6167738;28;20045;-79
2021/08/25 02:12:12;;;;;;;3.10;2.13;;;;;;;;;;6177653;28;20049;-78
2021/08/25 02:15:13;;;;;;;2.95;1.92;;;;;;;;;;6183885;28;20047;-79
2021/08/25 02:18:15;;;;;;;6.60;3.05;;;;;;;;;;6184707;28;20038;-79
2021/08/25 02:21:19;;;;;;;4.90;2.15;;;;;;;;;;6187911;28;20049;-79
2021/08/25 02:24:20;;;;;;;5.30;2.33;;;;;;;;;;6189880;28;20050;-79
2021/08/25 02:27:22;;;;;;;3.00;2.40;;;;;;;;;;6190009;28;20035;-79
2021/08/25 02:30:23;;;;;;;3.90;2.00;;;;;;;;;;6189610;28;20038;-79
2021/08/25 02:33:25;;;;;;;4.45;2.45;;;;;;;;;;6190439;28;20125;-79
2021/08/25 02:36:28;;;;;;;8.23;2.88;;;;;;;;;;6169573;28;20126;-79
2021/08/25 02:39:29;;;;;;;3.85;2.00;;;;;;;;;;6168254;28;20534;-79
2021/08/25 02:42:31;;;;;;;4.15;2.20;;;;;;;;;;6176699;28;20613;-79
2021/08/25 02:45:33;;;;;;;5.32;2.30;;;;;;;;;;6193955;28;20044;-79
2021/08/25 02:48:35;;;;;;;6.03;2.35;;;;;;;;;;6192539;28;20535;-79
2021/08/25 02:51:36;;;;;;;4.63;2.45;;;;;;;;;;6169342;28;20058;-79
2021/08/25 02:54:38;;;;;;;3.95;2.20;;;;;;;;;;6167646;28;20050;-79
2021/08/25 02:57:40;;;;;;;2.72;2.03;;;;;;;;;;6168628;28;20054;-79
2021/08/25 03:00:42;;;;;;;4.32;2.60;;;;;;;;;;6169359;28;20514;-79
2021/08/25 03:03:45;;;;;;;3.73;2.40;;;;;;;;;;6186361;28;20060;-79
2021/08/25 03:06:46;;;;;;;3.67;2.30;;;;;;;;;;6191566;28;20499;-79
2021/08/25 03:09:48;;;;;;;4.72;2.47;;;;;;;;;;6192663;28;20073;-79
2021/08/25 03:12:49;;;;;;;4.05;2.47;;;;;;;;;;6188518;28;20061;-79
2021/08/25 03:15:51;;;;;;;7.80;2.72;;;;;;;;;;6168917;28;20062;-79
2021/08/25 03:18:54;;;;;;;4.35;2.60;;;;;;;;;;6169103;28;20054;-80
2021/08/25 03:21:55;;;;;;;4.13;2.65;;;;;;;;;;6169075;28;20072;-79
2021/08/25 03:24:57;;;;;;;5.32;2.60;;;;;;;;;;6169539;28;20088;-78
2021/08/25 03:27:59;;;;;;;3.08;2.03;;;;;;;;;;6166457;28;20050;-79
2021/08/25 03:31:00;;;;;;;3.55;2.30;;;;;;;;;;6193247;28;20043;-79
2021/08/25 03:34:02;;;;;;;5.32;2.67;;;;;;;;;;6189571;28;20047;-79
2021/08/25 03:37:03;;;;;;;3.83;2.40;;;;;;;;;;6191816;28;20046;-79
2021/08/25 03:40:07;;;;;;;3.38;2.22;;;;;;;;;;6192965;28;20037;-79
2021/08/25 03:43:09;;;;;;;4.75;2.55;;;;;;;;;;6193168;28;20038;-78
2021/08/25 03:46:13;;;;;;;4.03;2.65;;;;;;;;;;6177364;28;20048;-78
2021/08/25 03:49:15;;;;;;;3.30;2.35;;;;;;;;;;6189651;28;20053;-79
2021/08/25 03:52:16;;;;;;;4.38;2.50;;;;;;;;;;6175597;28;20415;-78
2021/08/25 03:55:19;;;;;;;;;;;;;;;;;;6192469;28;20085;-79
2021/08/25 03:58:21;;;;;;;4.88;2.22;;;;;;;;;;6176350;28;19922;-79
2021/08/25 04:01:23;;;;;;;3.45;2.20;;;;;;;;;;6167354;28;20098;-79
2021/08/25 04:04:24;;;;;;;2.65;2.03;;;;;;;;;;6168375;28;20047;-79
2021/08/25 04:07:26;;;;;;;4.57;2.40;;;;;;;;;;6171122;28;20045;-78
2021/08/25 04:10:28;;;;;;;3.40;2.20;;;;;;;;;;6186361;28;20617;-79
2021/08/25 04:13:29;;;;;;;4.60;2.22;;;;;;;;;;6193545;28;20056;-79
2021/08/25 04:16:31;;;;;;;4.63;2.50;;;;;;;;;;6196369;28;20050;-78
2021/08/25 04:19:33;;;;;;;4.22;2.55;;;;;;;;;;6194237;28;20516;-78
2021/08/25 04:22:35;;;;;;;4.10;2.30;;;;;;;;;;6195665;28;20049;-79
2021/08/25 04:25:37;;;;;;;4.53;2.28;;;;;;;;;;6197065;28;20050;-79
2021/08/25 04:28:38;;;;;;;5.43;2.75;;;;;;;;;;6194307;28;20065;-79
2021/08/25 04:31:40;;;;;;;4.05;2.63;;;;;;;;;;6198838;28;20050;-79
2021/08/25 04:34:42;;;;;;;4.93;2.47;;;;;;;;;;6197305;28;20058;-80
2021/08/25 04:37:43;;;;;;;3.88;2.38;;;;;;;;;;6198702;28;20403;-80
2021/08/25 04:40:45;;;;;;;4.60;2.38;;;;;;;;;;6198733;28;20046;-79
2021/08/25 04:43:46;;;;;;;4.22;2.65;;;;;;;;;;6177644;28;20051;-80
2021/08/25 04:46:48;;;;;;;4.53;2.53;;;;;;;;;;6182540;28;20122;-79
2021/08/25 04:49:50;;;;;;;4.60;2.75;;;;;;;;;;6196152;28;20053;-80
2021/08/25 04:52:52;;;;;;;3.80;2.28;;;;;;;;;;6195477;28;20058;-79
2021/08/25 04:55:53;;;;;;;5.07;2.50;;;;;;;;;;6195407;28;20101;-79
2021/08/25 04:58:55;;;;;;;3.58;2.30;;;;;;;;;;6194192;28;20073;-79
2021/08/25 05:01:57;;;;;;;4.32;2.60;;;;;;;;;;6197057;28;20157;-80
2021/08/25 05:04:59;;;;;;;6.65;2.40;;;;;;;;;;6163696;28;20054;-80
2021/08/25 05:08:00;;;;;;;4.30;2.63;;;;;;;;;;6191408;28;20053;-80
2021/08/25 05:11:03;;;;;;;4.40;2.55;;;;;;;;;;6178092;28;20042;-80
2021/08/25 05:14:04;;;;;;;4.35;2.58;;;;;;;;;;6177348;28;20045;-79
2021/08/25 05:17:06;;;;;;;6.95;3.13;;;;;;;;;;6181426;28;20050;-80
2021/08/25 05:20:10;;;;;;;5.32;2.85;;;;;;;;;;6193683;28;20038;-80
2021/08/25 05:23:12;;;;;;;7.07;3.88;;;;;;;;;;6195743;28;20078;-80
2021/08/25 05:26:13;;;;;;;4.80;2.80;;;;;;;;;;6196556;28;20061;-79
2021/08/25 05:29:15;;;;;;;5.00;2.92;;;;;;;;;;6187724;28;20046;-81
2021/08/25 05:32:17;;;;;;;4.85;2.65;;;;;;;;;;6170655;28;20042;-80
2021/08/25 05:35:19;;;;;;;5.55;2.80;;;;;;;;;;6188112;28;20038;-80
2021/08/25 05:38:21;;;;;;;6.80;2.80;;;;;;;;;;6192875;28;20065;-80
2021/08/25 05:41:22;;;;;;;5.18;2.60;;;;;;;;;;6196571;28;20042;-80
2021/08/25 05:44:24;;;;;;;4.20;3.05;;;;;;;;;;6176560;28;20054;-80
2021/08/25 05:47:25;;;;;;;3.47;2.53;;;;;;;;;;6186677;28;20403;-80
2021/08/25 05:50:27;;;;;;;7.25;2.90;;;;;;;;;;6193237;28;20057;-80
2021/08/25 05:53:29;;;;;;;3.63;2.60;;;;;;;;;;6192768;28;20054;-79
2021/08/25 05:56:30;;;;;;;5.80;2.90;;;;;;;;;;6192658;28;20042;-80
2021/08/25 05:59:32;;;;;;;4.50;2.83;;;;;;;;;;6194380;28;20041;-80
2021/08/25 06:02:34;;;;;;;6.97;3.05;;;;;;;;;;6193710;28;20034;-80
2021/08/25 06:05:36;;;;;;;12.77;3.13;;;;;;;;;;6186340;28;20049;-79
2021/08/25 06:08:40;;;;;;;4.55;3.13;;;;;;;;;;6181534;28;20555;-79
2021/08/25 06:11:42;;;;;;;5.60;3.63;;;;;;;;;;6179650;28;20046;-79
2021/08/25 06:14:43;;;;;;;8.18;3.75;;;;;;;;;;6169076;28;20046;-80
2021/08/25 06:17:45;;;;;;;5.07;3.83;;;;;;;;;;6183968;28;20125;-80
2021/08/25 06:20:46;;;;;;;7.75;4.63;;;;;;;;;;6175275;28;20043;-80
2021/08/25 06:23:48;;;;;;;9.52;4.70;;;;;;;;;;6181904;28;20711;-78
2021/08/25 06:26:50;;;;;;;6.95;4.60;;;;;;;;;;6183647;28;20533;-80
2021/08/25 06:29:51;;;;;;;9.43;4.57;;;;;;;;;;6193410;28;20049;-81
2021/08/25 06:32:53;;;;;;;9.10;3.92;;;;;;;;;;6177618;28;20042;-79
2021/08/25 06:35:56;;;;;;;5.93;3.95;;;;;;;;;;6180638;28;20058;-80
2021/08/25 06:38:57;;;;;;;9.70;4.50;;;;;;;;;;6177152;28;20145;-78
2021/08/25 06:41:59;;;;;;;6.60;3.70;;;;;;;;;;6171087;28;20046;-79
2021/08/25 06:45:00;;;;;;;8.80;4.32;;;;;;;;;;6173530;28;20047;-81
2021/08/25 06:48:04;;;;;;;8.07;3.88;;;;;;;;;;6203632;28;20109;-80
2021/08/25 06:51:05;;;;;;;;;;;;;;;;;;6200803;28;20057;-78
2021/08/25 06:54:07;;;;;;;5.65;3.75;;;;;;;;;;6194396;28;20438;-80
2021/08/25 06:57:08;;;;;;;4.82;2.80;;;;;;;;;;6185395;28;20046;-78
2021/08/25 07:00:10;;;;;;;7.55;3.60;;;;;;;;;;6189723;28;20057;-80
2021/08/25 07:03:12;;;;;;;5.90;3.25;;;;;;;;;;6194607;28;20106;-80
2021/08/25 07:06:14;;;;;;;6.55;3.50;;;;;;;;;;6184579;28;20455;-80
2021/08/25 07:09:15;;;;;;;7.97;3.35;;;;;;;;;;6193870;28;20054;-79
2021/08/25 07:12:18;;;;;;;6.57;3.10;;;;;;;;;;6195383;28;20045;-81
2021/08/25 07:15:20;;;;;;;6.57;3.42;;;;;;;;;;6196000;28;20060;-80
2021/08/25 07:18:21;;;;;;;7.05;3.45;;;;;;;;;;6191938;28;20034;-78
2021/08/25 07:21:23;;;;;;;6.75;3.10;;;;;;;;;;6193860;28;20125;-79
2021/08/25 07:24:25;;;;;;;6.88;2.78;;;;;;;;;;6177720;28;20043;-78
2021/08/25 07:27:26;;;;;;;7.65;3.35;;;;;;;;;;6192217;28;20046;-78
2021/08/25 07:30:28;;;;;;;7.57;3.20;;;;;;;;;;6182934;28;20042;-83
2021/08/25 07:33:29;;;;;;;6.78;3.00;;;;;;;;;;6169366;28;20061;-79
2021/08/25 07:36:31;;;;;;;5.95;2.88;;;;;;;;;;6171397;28;20170;-81
2021/08/25 07:39:33;;;;;;;8.85;2.95;;;;;;;;;;6197513;28;20068;-79
2021/08/25 07:42:35;;;;;;;6.05;2.47;;;;;;;;;;6196175;28;20062;-80
2021/08/25 07:45:37;;;;;;;9.95;2.92;;;;;;;;;;6178216;28;20047;-80
2021/08/25 07:48:38;;;;;;;6.25;2.60;;;;;;;;;;6196697;28;20046;-82
2021/08/25 07:51:40;;;;;;;8.18;3.00;;;;;;;;;;6174010;28;20057;-82
2021/08/25 07:54:42;;;;;;;5.72;2.72;;;;;;;;;;6176821;28;20057;-81
2021/08/25 07:57:43;;;;;;;5.13;2.58;;;;;;;;;;6181353;28;20141;-81
2021/08/25 08:00:45;;;;;;;6.00;2.78;;;;;;;;;;6181003;28;20109;-80
2021/08/25 08:03:47;;;;;;;5.63;2.35;;;;;;;;;;6186868;28;20069;-80
2021/08/25 08:06:48;;;;;;;9.38;3.00;;;;;;;;;;6162637;28;20049;-79
2021/08/25 08:09:50;;;;;;;4.90;2.55;;;;;;;;;;6184172;28;20054;-80
2021/08/25 08:12:52;;;;;;;5.43;2.53;;;;;;;;;;6182986;28;20061;-78
2021/08/25 08:15:54;;;;;;;5.80;2.65;;;;;;;;;;6186776;28;20061;-80
2021/08/25 08:18:58;;;;;;;4.00;2.50;;;;;;;;;;6180561;28;20066;-80
2021/08/25 08:22:02;;;;;;;5.65;2.50;;;;;;;;;;6186200;28;20409;-80
2021/08/25 08:25:04;;;;;;;6.80;2.40;;;;;;;;;;6180990;28;20049;-80
2021/08/25 08:28:06;;;;;;;5.68;2.28;;;;;;;;;;6169549;28;20050;-79
2021/08/25 08:31:09;;;;;;;5.43;2.30;;;;;;;;;;6194086;28;20053;-79
2021/08/25 08:34:12;;;;;;;5.68;2.55;;;;;;;;;;6176911;28;20487;-79
2021/08/25 08:37:13;;;;;;;6.83;2.37;;;;;;;;;;6180745;28;20049;-80
2021/08/25 08:40:15;;;;;;;4.70;2.17;;;;;;;;;;6184744;28;20438;-80
2021/08/25 08:43:16;;;;;;;4.93;2.25;;;;;;;;;;6173623;28;20072;-79
2021/08/25 08:46:22;;;;;;;7.07;2.47;;;;;;;;;;6181623;28;20491;-80
2021/08/25 08:49:24;;;;;;;5.65;2.83;;;;;;;;;;6178949;28;20054;-80
2021/08/25 08:52:27;;;;;;;4.57;2.30;;;;;;;;;;6194308;28;20438;-81
2021/08/25 08:55:33;;;;;;;3.03;2.20;;;;;;;;;;6186978;28;20065;-80
2021/08/25 08:58:39;;;;;;;9.02;2.67;;;;;;;;;;6194486;28;20042;-80
2021/08/25 09:01:41;;;;;;;4.18;2.10;;;;;;;;;;6194349;28;20046;-81
2021/08/25 09:04:46;;;;;;;5.07;2.00;;;;;;;;;;6194998;28;20053;-80
2021/08/25 09:08:07;;;;;;;5.63;2.50;;;;;;;;;;6194389;28;20042;-80
2021/08/25 09:11:13;;;;;;;4.07;2.40;;;;;;;;;;6194969;28;20057;-80
2021/08/25 09:14:15;;;;;;;5.53;2.13;;;;;;;;;;6194169;28;20046;-79
2021/08/25 09:17:28;;;;;;;4.53;2.70;;;;;;;;;;6194149;28;20549;-80
2021/08/25 09:20:34;;;;;;;;;;;;;;;;;;6185838;28;20046;-81
2021/08/25 09:23:35;;;;;;;5.32;2.38;;;;;;;;;;6195296;28;19922;-82
2021/08/25 09:26:58;;;;;;;4.22;2.38;;;;;;;;;;6192151;28;20060;-80
2021/08/25 09:30:04;;;;;;;5.50;2.58;;;;;;;;;;6157617;28;20060;-80
2021/08/25 09:33:05;;;;;;;5.35;2.17;;;;;;;;;;6179119;28;20038;-81
2021/08/25 09:36:10;;;;;;;3.55;2.30;;;;;;;;;;6188567;28;20061;-81
2021/08/25 09:39:21;;;;;;;3.60;2.05;;;;;;;;;;6181771;28;20041;-81
2021/08/25 09:42:24;;;;;;;4.75;2.60;;;;;;;;;;6186023;28;20042;-81
2021/08/25 09:45:25;;;;;;;3.92;2.05;;;;;;;;;;6170091;28;20519;-81
2021/08/25 09:48:39;;;;;;;3.75;2.40;;;;;;;;;;6188374;28;20045;-81
2021/08/25 09:51:41;;;;;;;4.90;2.78;;;;;;;;;;6188671;28;20054;-80
2021/08/25 09:55:12;;;;;;;5.35;2.58;;;;;;;;;;6191257;28;20628;-80
2021/08/25 09:58:14;;;;;;;5.00;2.75;;;;;;;;;;6169691;28;20051;-80
2021/08/25 10:01:17;;;;;;;6.53;2.80;;;;;;;;;;6188104;28;20049;-81
2021/08/25 10:04:19;;;;;;;5.18;2.45;;;;;;;;;;6165601;28;20181;-81
2021/08/25 10:07:21;;;;;;;7.60;2.85;;;;;;;;;;6175807;28;20058;-79
2021/08/25 10:10:23;;;;;;;6.23;2.40;;;;;;;;;;6165639;28;20061;-80
2021/08/25 10:13:27;;;;;;;6.37;2.97;;;;;;;;;;6162944;28;20449;-80
2021/08/25 10:16:49;;;;;;;5.45;2.42;;;;;;;;;;6170175;28;20181;-80
2021/08/25 10:19:51;;;;;;;6.47;2.90;;;;;;;;;;6184645;28;20054;-79
2021/08/25 10:22:53;;;;;;;6.07;2.75;;;;;;;;;;6174825;28;20057;-83
2021/08/25 10:26:06;;;;;;;4.50;2.85;;;;;;;;;;6193456;28;20046;-81
2021/08/25 10:29:10;;;;;;;5.47;2.80;;;;;;;;;;6192210;28;20526;-81
2021/08/25 10:32:12;;;;;;;3.75;2.60;;;;;;;;;;6193183;28;20439;-80
2021/08/25 10:35:14;;;;;;;4.95;2.65;;;;;;;;;;6182194;28;20043;-81
2021/08/25 10:38:22;;;;;;;8.30;3.10;;;;;;;;;;6168378;28;20443;-78
2021/08/25 10:41:24;;;;;;;4.38;2.42;;;;;;;;;;6172637;28;20049;-79
2021/08/25 10:44:40;;;;;;;6.07;2.83;;;;;;;;;;6171374;28;20046;-78
2021/08/25 10:48:02;;;;;;;4.57;2.55;;;;;;;;;;6172773;28;20135;-80
2021/08/25 10:51:04;;;;;;;6.15;3.05;;;;;;;;;;6174857;28;20195;-80
2021/08/25 10:54:10;;;;;;;3.63;2.40;;;;;;;;;;6175622;28;20042;-79
2021/08/25 10:57:15;;;;;;;5.70;2.60;;;;;;;;;;6189508;28;20042;-79
2021/08/25 11:00:17;;;;;;;4.18;2.30;;;;;;;;;;6147185;28;20145;-79
2021/08/25 11:03:34;;;;;;;5.35;2.78;;;;;;;;;;6175574;28;20050;-80
2021/08/25 11:06:39;;;;;;;3.97;2.40;;;;;;;;;;6167757;28;20058;-79
2021/08/25 11:09:48;;;;;;;4.75;2.83;;;;;;;;;;6162080;28;20053;-80
2021/08/25 11:12:50;;;;;;;8.00;3.05;;;;;;;;;;6172066;28;20054;-80
2021/08/25 11:15:52;;;;;;;;;;;;;;;;;;6176999;28;20062;-80
2021/08/25 11:18:53;;;;;;;4.63;2.60;;;;;;;;;;6177711;28;20419;-79
2021/08/25 11:21:57;;;;;;;6.32;3.22;;;;;;;;;;6176533;28;20046;-81
2021/08/25 11:25:02;;;;;;;5.00;2.63;;;;;;;;;;6188834;28;20062;-81
2021/08/25 11:28:10;;;;;;;5.05;2.85;;;;;;;;;;6179674;28;20582;-81
2021/08/25 11:31:14;;;;;;;6.43;2.78;;;;;;;;;;6169672;28;20632;-80
2021/08/25 11:34:17;;;;;;;5.18;3.00;;;;;;;;;;6172342;28;20174;-81
2021/08/25 11:37:21;;;;;;;5.00;2.85;;;;;;;;;;6168241;28;20043;-81
2021/08/25 11:40:25;;;;;;;6.13;3.20;;;;;;;;;;6169443;28;20058;-80
2021/08/25 11:43:27;;;;;;;5.80;3.30;;;;;;;;;;6169275;28;20529;-82
2021/08/25 11:46:29;;;;;;;5.03;3.10;;;;;;;;;;6177391;28;20039;-82
2021/08/25 11:49:31;;;;;;;3.90;2.70;;;;;;;;;;6188344;28;20513;-80
2021/08/25 11:52:34;;;;;;;;;;;;;;;;;;6169872;28;20440;-81
2021/08/25 11:55:36;;;;;;;5.97;3.08;;;;;;;;;;6170219;28;19926;-79
2021/08/25 11:58:38;;;;;;;5.00;3.13;;;;;;;;;;6177444;28;20050;-81
2021/08/25 12:01:39;;;;;;;5.57;3.53;;;;;;;;;;6149442;28;20050;-82
2021/08/25 12:04:41;;;;;;;5.28;2.95;;;;;;;;;;6184500;28;20046;-81
2021/08/25 12:07:59;;;;;;;5.15;3.20;;;;;;;;;;6155034;28;20049;-82
2021/08/25 12:11:06;;;;;;;6.80;3.75;;;;;;;;;;6171175;28;20046;-81
2021/08/25 12:14:07;;;;;;;5.57;3.30;;;;;;;;;;6171832;28;20042;-82
2021/08/25 12:17:09;;;;;;;6.57;3.10;;;;;;;;;;6188599;28;20042;-80
2021/08/25 12:20:11;;;;;;;6.45;3.15;;;;;;;;;;6186092;28;20077;-82
2021/08/25 12:23:15;;;;;;;6.70;3.20;;;;;;;;;;6131075;28;20053;-82
2021/08/25 12:26:16;;;;;;;4.70;3.10;;;;;;;;;;6171594;28;20121;-82
2021/08/25 12:29:30;;;;;;;6.47;3.40;;;;;;;;;;6186394;28;20050;-81
2021/08/25 12:32:43;;;;;;;6.07;3.50;;;;;;;;;;6188305;28;20051;-81
2021/08/25 12:35:44;;;;;;;5.38;3.30;;;;;;;;;;6178482;28;20053;-82
2021/08/25 12:38:46;;;;;;;5.30;3.20;;;;;;;;;;6197300;28;20085;-82
2021/08/25 12:41:50;;;;;;;7.05;3.65;;;;;;;;;;6199307;28;20046;-82
2021/08/25 12:44:52;;;;;;;7.88;3.58;;;;;;;;;;6198347;28;20042;-80
2021/08/25 12:47:55;;;;;;;7.00;3.90;;;;;;;;;;6199904;28;20419;-80
2021/08/25 12:50:57;;;;;;;7.68;3.88;;;;;;;;;;6180233;28;20053;-79
2021/08/25 12:53:58;;;;;;;5.97;3.50;;;;;;;;;;6174165;28;20118;-78
2021/08/25 12:57:00;;;;;;;8.37;3.80;;;;;;;;;;6173192;28;20053;-79
2021/08/25 13:00:03;;;;;;;5.90;3.60;;;;;;;;;;6171679;28;20038;-79
2021/08/25 13:03:06;;;;;;;5.65;3.20;;;;;;;;;;6181499;28;20078;-80
2021/08/25 13:06:07;;;;;;;;;;;;;;;;;;6173936;28;20058;-79
2021/08/25 13:09:09;;;;;;;4.75;3.45;;;;;;;;;;6177179;28;20472;-80
2021/08/25 13:12:11;;;;;;;8.05;3.60;;;;;;;;;;6174233;28;20038;-79
2021/08/25 13:15:12;;;;;;;6.60;3.57;;;;;;;;;;6160781;28;20042;-79
2021/08/25 13:18:14;;;;;;;6.40;3.43;;;;;;;;;;6180703;28;20038;-79
2021/08/25 13:21:15;;;;;;;6.27;3.77;;;;;;;;;;6185618;28;20516;-79
2021/08/25 13:24:17;;;;;;;5.95;3.45;;;;;;;;;;6197192;28;20046;-79
2021/08/25 13:27:19;;;;;;;6.07;3.13;;;;;;;;;;6191516;28;20043;-81
2021/08/25 13:30:20;;;;;;;6.80;3.47;;;;;;;;;;6173315;28;20448;-80
2021/08/25 13:33:22;;;;;;;5.73;3.57;;;;;;;;;;6188714;28;20438;-80
2021/08/25 13:36:24;;;;;;;5.53;3.43;;;;;;;;;;6183300;28;20194;-80
2021/08/25 13:39:26;;;;;;;4.45;3.15;;;;;;;;;;6172772;28;20034;-80
2021/08/25 13:42:28;;;;;;;4.93;3.17;;;;;;;;;;6174173;28;20175;-79
2021/08/25 13:45:29;;;;;;;5.50;3.20;;;;;;;;;;6172866;28;20458;-80
2021/08/25 13:48:31;;;;;;;6.35;3.20;;;;;;;;;;6199007;28;20046;-81
2021/08/25 13:51:33;;;;;;;5.88;3.35;;;;;;;;;;6197291;28;20039;-78
2021/08/25 13:54:34;;;;;;;6.00;3.63;;;;;;;;;;6198013;28;20042;-80
2021/08/25 13:57:36;;;;;;;6.93;3.90;;;;;;;;;;6189553;28;20443;-81
2021/08/25 14:00:38;;;;;;;5.63;3.40;;;;;;;;;;6173832;28;20066;-80
2021/08/25 14:03:40;;;;;;;5.75;3.88;;;;;;;;;;6196057;28;20046;-80
2021/08/25 14:06:42;;;;;;;5.10;3.33;;;;;;;;;;6172358;28;20073;-80
2021/08/25 14:09:44;;;;;;;5.67;3.30;;;;;;;;;;6175090;28;20051;-80
2021/08/25 14:12:45;;;;;;;5.70;3.73;;;;;;;;;;6171824;28;20053;-80
2021/08/25 14:15:47;;;;;;;6.75;3.38;;;;;;;;;;6163709;28;20050;-80
2021/08/25 14:18:48;;;;;;;8.15;3.50;;;;;;;;;;6186149;28;20427;-79
2021/08/25 14:21:50;;;;;;;5.67;3.60;;;;;;;;;;6196338;28;20678;-80
2021/08/25 14:24:52;;;;;;;6.80;3.53;;;;;;;;;;6197674;28;20449;-80
2021/08/25 14:27:53;;;;;;;5.90;3.83;;;;;;;;;;6180889;28;20438;-78
2021/08/25 14:30:56;;;;;;;7.30;3.50;;;;;;;;;;6171056;28;20446;-79
2021/08/25 14:33:58;;;;;;;7.03;3.70;;;;;;;;;;6185216;28;20050;-79
2021/08/25 14:36:59;;;;;;;6.22;3.72;;;;;;;;;;6170640;28;20115;-78
2021/08/25 14:40:03;;;;;;;6.60;3.70;;;;;;;;;;6169496;28;20519;-79
2021/08/25 14:43:05;;;;;;;5.05;3.30;;;;;;;;;;6170238;28;20053;-78
2021/08/25 14:46:06;;;;;;;8.53;3.73;;;;;;;;;;6175673;28;20045;-80
2021/08/25 14:49:08;;;;;;;6.13;3.75;;;;;;;;;;6189233;28;20042;-79
2021/08/25 14:52:10;;;;;;;6.82;4.10;;;;;;;;;;6170665;28;20043;-78
2021/08/25 14:55:12;;;;;;;6.43;4.00;;;;;;;;;;6170472;28;20054;-80
2021/08/25 14:58:13;;;;;;;6.60;3.77;;;;;;;;;;6168380;28;20438;-79
2021/08/25 15:01:16;;;;;;;6.20;3.97;;;;;;;;;;6170026;28;20049;-77
2021/08/25 15:04:18;;;;;;;5.65;3.65;;;;;;;;;;6188745;28;20071;-80
2021/08/25 15:07:19;;;;;;;5.43;3.60;;;;;;;;;;6169205;28;20050;-79
2021/08/25 15:10:21;;;;;;;6.00;3.53;;;;;;;;;;6168647;28;20620;-80
2021/08/25 15:13:23;;;;;;;6.75;4.07;;;;;;;;;;6185028;28;21101;-78
2021/08/25 15:16:26;;;;;;;7.33;3.97;;;;;;;;;;6169213;28;20054;-79
2021/08/25 15:19:28;;;;;;;5.60;3.90;;;;;;;;;;6167528;28;20080;-78
2021/08/25 15:22:30;;;;;;;7.30;4.10;;;;;;;;;;6170608;28;20116;-80
2021/08/25 15:25:31;;;;;;;8.70;4.40;;;;;;;;;;6158486;28;20804;-79
2021/08/25 15:28:33;;;;;;;8.23;4.87;;;;;;;;;;6176011;28;20042;-78
2021/08/25 15:31:34;;;;;;;8.43;4.82;;;;;;;;;;6176635;28;20074;-78
2021/08/25 15:34:37;;;;;;;9.88;4.82;;;;;;;;;;6178514;28;20061;-79
2021/08/25 15:37:42;;;;;;;9.38;5.07;;;;;;;;;;6176825;28;20051;-79
2021/08/25 15:40:44;;;;;;;7.53;4.38;;;;;;;;;;6156652;28;20047;-79
2021/08/25 15:43:46;;;;;;;6.97;4.47;;;;;;;;;;6177113;28;20146;-78
2021/08/25 15:46:50;;;;;;;10.73;4.90;;;;;;;;;;6191460;28;20057;-79
2021/08/25 15:49:52;;;;;;;8.32;4.53;;;;;;;;;;6198437;28;20035;-78
2021/08/25 15:52:53;;;;;;;8.15;4.43;;;;;;;;;;6202873;28;20042;-80
2021/08/25 15:55:57;;;;;;;7.75;4.40;;;;;;;;;;6201378;28;20058;-80
2021/08/25 15:59:00;;;;;;;9.70;4.20;;;;;;;;;;6181562;28;20043;-79
2021/08/25 16:02:03;;;;;;;8.25;4.20;;;;;;;;;;6189156;28;20049;-81
2021/08/25 16:05:06;;;;;;;7.65;4.18;;;;;;;;;;6197383;28;20050;-80
2021/08/25 16:08:07;;;;;;;10.07;4.47;;;;;;;;;;6178772;28;20046;-80
2021/08/25 16:11:09;;;;;;;8.45;4.43;;;;;;;;;;6171860;28;20416;-79
2021/08/25 16:14:11;;;;;;;7.50;3.75;;;;;;;;;;6176454;28;20034;-80
2021/08/25 16:17:12;;;;;;;6.75;3.78;;;;;;;;;;6175524;28;20053;-79
2021/08/25 16:20:14;;;;;;;7.07;3.90;;;;;;;;;;6175195;28;20047;-79
2021/08/25 16:23:15;;;;;;;8.00;3.97;;;;;;;;;;6176281;28;20057;-77
2021/08/25 16:26:17;;;;;;;7.53;4.32;;;;;;;;;;6182986;28;20054;-79
2021/08/25 16:29:18;;;;;;;6.55;3.90;;;;;;;;;;6192608;28;20043;-79
2021/08/25 16:32:20;;;;;;;9.10;3.97;;;;;;;;;;6178986;28;20034;-79
2021/08/25 16:35:23;;;;;;;9.07;3.72;;;;;;;;;;6197790;28;20050;-80
2021/08/25 16:38:25;;;;;;;6.05;3.47;;;;;;;;;;6198055;28;20035;-79
2021/08/25 16:41:27;;;;;;;7.47;3.72;;;;;;;;;;6197342;28;20042;-78
2021/08/25 16:44:28;;;;;;;6.38;3.22;;;;;;;;;;6171827;28;20039;-80
2021/08/25 16:47:30;;;;;;;7.10;4.00;;;;;;;;;;6188951;28;20054;-82
2021/08/25 16:50:31;;;;;;;7.57;3.95;;;;;;;;;;6183596;28;20045;-79
2021/08/25 16:53:33;;;;;;;6.97;3.50;;;;;;;;;;6172838;28;20045;-80
2021/08/25 16:56:37;;;;;;;6.37;3.60;;;;;;;;;;6173213;28;20051;-79
2021/08/25 16:59:39;;;;;;;7.85;3.72;;;;;;;;;;6184786;28;20439;-79
2021/08/25 17:02:44;;;;;;;7.20;3.42;;;;;;;;;;6181659;28;20053;-79
2021/08/25 17:05:46;;;;;;;5.93;3.60;;;;;;;;;;6180136;28;20057;-79
2021/08/25 17:08:47;;;;;;;6.72;3.58;;;;;;;;;;6172104;28;20047;-80
2021/08/25 17:11:49;;;;;;;7.60;3.92;;;;;;;;;;6170604;28;20410;-79
2021/08/25 17:14:51;;;;;;;9.80;3.97;;;;;;;;;;6172810;28;20043;-77
2021/08/25 17:17:52;;;;;;;6.53;3.67;;;;;;;;;;6170301;28;20118;-79
2021/08/25 17:20:54;;;;;;;9.23;3.78;;;;;;;;;;6171897;28;20121;-79
2021/08/25 17:23:56;;;;;;;9.07;3.70;;;;;;;;;;6172364;28;20126;-78
2021/08/25 17:26:58;;;;;;;7.30;3.83;;;;;;;;;;6170680;28;20411;-77
2021/08/25 17:29:59;;;;;;;9.52;3.80;;;;;;;;;;6171413;28;20042;-77
2021/08/25 17:33:01;;;;;;;7.45;3.78;;;;;;;;;;6170521;28;20042;-80
2021/08/25 17:36:03;;;;;;;9.80;3.85;;;;;;;;;;6170611;28;20046;-78
2021/08/25 17:39:04;;;;;;;8.68;4.00;;;;;;;;;;6170702;28;20049;-79
2021/08/25 17:42:06;;;;;;;8.73;4.50;;;;;;;;;;6171440;28;20055;-79
2021/08/25 17:45:12;;;;;;;8.30;3.83;;;;;;;;;;6187637;28;20065;-80
2021/08/25 17:48:13;;;;;;;8.93;4.80;;;;;;;;;;6194399;28;20058;-79
2021/08/25 17:51:15;;;;;;;10.77;5.90;;;;;;;;;;6193736;28;20045;-77
2021/08/25 17:54:17;;;;;;;11.70;5.22;;;;;;;;;;6195821;28;20041;-80
2021/08/25 17:57:19;;;;;;;8.57;5.13;;;;;;;;;;6189548;28;20724;-81
2021/08/25 18:00:25;;;;;;;9.00;4.43;;;;;;;;;;6175040;28;20496;-80
2021/08/25 18:03:27;;;;;;;8.27;5.10;;;;;;;;;;6193839;28;20060;-79
2021/08/25 18:06:28;;;;;;;11.55;5.50;;;;;;;;;;6175429;28;20046;-79
2021/08/25 18:09:30;;;;;;;9.43;5.30;;;;;;;;;;6194462;28;20053;-79
2021/08/25 18:12:33;;;;;;;10.18;5.60;;;;;;;;;;6187634;28;20051;-79
2021/08/25 18:15:34;;;;;;;12.63;5.47;;;;;;;;;;6168278;28;20039;-78
2021/08/25 18:18:37;;;;;;;10.63;7.30;;;;;;;;;;6168550;28;20053;-80